Bookmark and Share
Track history (hours):
 

Marco Polo

Operator: Orient Lines

Last reported at 2014-Apr-23 22:12 UTC. Time now 2014-Apr-24 09:24 UTC.
Position N 58°57' E 004°34'.

Type: Ship. MMSI: 308693000.

NotesDate/timePositionNaut miles runAvg speedWind from/ knotsBaromVisibWave heightAir tempDewpointWater temp
2014-Apr-23 22:12N 58°57' E 004°34'1116.8
2014-Apr-23 21:32N 59°08' E 004°37'  
2014-Apr-20 23:19N 59°14' E 005°21'1013.2
2014-Apr-20 22:33N 59°04' E 005°21'1414.4
2014-Apr-20 21:33N 58°50' E 005°16'41716.7
2014-Apr-19 20:33N 52°08' E 001°59'1818.0
2014-Apr-19 19:33N 51°52' E 001°48'9 8.7
2014-Apr-19 18:34N 51°50' E 001°34'1717.2
2014-Apr-19 17:34N 51°36' E 001°18'1817.3
2014-Apr-19 16:32N 51°29' E 000°51'1515.3
2014-Apr-19 15:34N 51°29' E 000°27'4 3.6
2014-Apr-19 14:32N 51°27' E 000°22'0 0.0
2014-Apr-19 13:31N 51°27' E 000°22'0 0.3
2014-Apr-19 12:34N 51°27' E 000°22'0 0.2
2014-Apr-19 11:34N 51°27' E 000°22'0 0.0
2014-Apr-19 10:34N 51°27' E 000°22'0 0.0
2014-Apr-19 09:34N 51°27' E 000°22'0 0.0
2014-Apr-19 08:34N 51°27' E 000°22'0 0.0
2014-Apr-19 07:34N 51°27' E 000°22'0 0.0
2014-Apr-19 06:34N 51°27' E 000°22'2 2.3
2014-Apr-19 05:34N 51°27' E 000°26'10 9.6
2014-Apr-19 04:30N 51°30' E 000°41'1213.0
2014-Apr-19 03:33N 51°30' E 001°01'1615.8
2014-Apr-19 02:33N 51°38' E 001°22'1616.4
2014-Apr-19 01:33N 51°51' E 001°39'1312.7
2014-Apr-19 00:33N 52°02' E 001°50'  
2014-Apr-15 01:34N 59°26' E 005°14'1212.4
2014-Apr-15 00:34N 59°14' E 005°21'1514.6
2014-Apr-14 23:34N 58°60' E 005°19'1615.8
2014-Apr-14 22:34N 58°44' E 005°13'38115.8
2014-Apr-13 22:32N 52°36' E 002°22'  

Dump ship's entire track history

sailing weather and tide predictions

Marco Polo — C6JZ7 — position and weather